Time;durP1;ratioP1;P1;durP2;ratioP2;P2;SDS_P1;SDS_P2;PMS_P1;PMS_P2;Temp;Humidity;BMP_temperature;BMP_pressure;BME280_temperature;BME280_humidity;BME280_pressure;Samples;Min_cycle;Max_cycle;Signal;HPM_P1;HPM_P2
2022/06/28 00:01:59;;;;;;;7.40;3.33;;;;;;;20.56;59.10;99613.48;1801757;78;21894;-63
2022/06/28 00:04:28;;;;;;;9.13;3.90;;;;;;;20.56;59.28;99610.83;1799840;78;20998;-64
2022/06/28 00:06:54;;;;;;;6.90;3.50;;;;;;;20.55;59.42;99607.31;1793350;78;21562;-63
2022/06/28 00:09:24;;;;;;;7.05;3.95;;;;;;;20.53;59.37;99608.46;1788686;79;21093;-63
2022/06/28 00:11:53;;;;;;;10.58;3.85;;;;;;;20.48;59.67;99602.70;1790537;79;20998;-63
2022/06/28 00:17:06;;;;;;;5.87;3.90;;;;;;;20.38;59.92;99607.15;1788338;79;21055;-63
2022/06/28 00:19:33;;;;;;;;;;;;;;;20.29;60.15;99609.64;1787588;79;21075;-63
2022/06/28 00:22:00;;;;;;;6.67;4.10;;;;;;;20.29;60.40;99607.00;1791318;79;20166;-63
2022/06/28 00:24:27;;;;;;;4.92;4.00;;;;;;;20.28;60.58;99607.98;1792985;79;21035;-63
2022/06/28 00:26:54;;;;;;;11.43;3.70;;;;;;;20.28;60.75;99601.84;1787232;79;21021;-63
2022/06/28 00:29:21;;;;;;;6.25;3.90;;;;;;;20.29;60.77;99605.67;1793594;79;21445;-63
2022/06/28 00:31:48;;;;;;;7.65;4.03;;;;;;;20.31;61.02;99597.09;1789134;79;21026;-63
2022/06/28 00:34:14;;;;;;;7.95;3.75;;;;;;;20.33;61.43;99596.94;1787186;79;21518;-65
2022/06/28 00:36:41;;;;;;;6.40;4.25;;;;;;;20.31;61.10;99599.75;1795971;78;22240;-63
2022/06/28 00:39:09;;;;;;;5.40;4.28;;;;;;;20.31;61.29;99591.80;1792940;79;21022;-63
2022/06/28 00:41:36;;;;;;;12.63;4.90;;;;;;;20.30;61.55;99606.01;1788936;79;22821;-63
2022/06/28 00:44:04;;;;;;;6.28;4.35;;;;;;;20.30;61.52;99596.73;1788167;79;21054;-63
2022/06/28 00:46:36;;;;;;;6.05;4.42;;;;;;;20.27;61.67;99599.66;1780995;79;21053;-63
2022/06/28 00:49:04;;;;;;;7.92;4.00;;;;;;;20.25;61.74;99597.66;1795045;79;21028;-63
2022/06/28 00:51:33;;;;;;;5.87;3.95;;;;;;;20.23;61.85;99596.95;1788565;79;21660;-63
2022/06/28 00:54:01;;;;;;;9.78;4.22;;;;;;;20.24;61.92;99603.91;1788335;79;21076;-63
2022/06/28 00:56:47;;;;;;;5.37;4.03;;;;;;;20.25;62.12;99595.00;1751648;81;21588;-63
2022/06/28 00:59:15;;;;;;;7.67;4.47;;;;;;;20.28;62.24;99600.03;1812440;77;26697;-60
2022/06/28 01:01:42;;;;;;;4.85;4.03;;;;;;;20.33;62.36;99597.81;1812997;78;21070;-61
2022/06/28 01:04:08;;;;;;;7.97;4.42;;;;;;;20.38;62.39;99592.07;1812004;78;21058;-61
2022/06/28 01:06:40;;;;;;;6.50;4.00;;;;;;;20.37;62.39;99596.20;1812725;78;21576;-60
2022/06/28 01:09:07;;;;;;;7.10;3.58;;;;;;;20.39;62.44;99598.20;1806559;78;21110;-62
2022/06/28 01:11:33;;;;;;;5.92;4.10;;;;;;;20.40;62.47;99602.55;1812391;78;21596;-63
2022/06/28 01:14:06;;;;;;;8.03;4.58;;;;;;;20.43;62.60;99596.97;1810958;78;20956;-63
2022/06/28 01:16:32;;;;;;;4.50;3.70;;;;;;;20.45;62.63;99597.67;1812141;78;20995;-63
2022/06/28 01:18:59;;;;;;;7.17;4.15;;;;;;;20.50;62.89;99595.42;1807402;78;20957;-63
2022/06/28 01:21:29;;;;;;;7.30;4.20;;;;;;;20.53;62.85;99594.70;1813462;78;20900;-62
2022/06/28 01:23:57;;;;;;;4.50;4.10;;;;;;;20.64;62.97;99593.73;1807356;78;20979;-63
2022/06/28 01:26:25;;;;;;;6.03;4.17;;;;;;;20.70;62.83;99599.80;1812151;78;21045;-63
2022/06/28 01:28:53;;;;;;;6.30;4.28;;;;;;;20.66;62.69;99597.06;1808662;78;20921;-62
2022/06/28 01:31:24;;;;;;;10.53;4.10;;;;;;;20.64;62.78;99597.72;1814410;78;21129;-62
2022/06/28 01:33:53;;;;;;;7.10;3.80;;;;;;;20.62;62.79;99597.01;1803687;78;21581;-63
2022/06/28 01:36:20;;;;;;;6.75;3.77;;;;;;;20.56;62.92;99595.75;1810694;78;21028;-62
2022/06/28 01:38:48;;;;;;;5.72;4.30;;;;;;;20.57;62.94;99592.61;1809045;78;21218;-62
2022/06/28 01:41:32;;;;;;;5.28;4.28;;;;;;;20.56;63.08;99593.09;1807137;78;20998;-63
2022/06/28 01:44:03;;;;;;;5.08;3.67;;;;;;;20.61;63.05;99592.66;1809163;78;21303;-61
2022/06/28 01:46:31;;;;;;;7.75;4.35;;;;;;;20.63;63.09;99590.71;1811548;78;21010;-63
2022/06/28 01:48:58;;;;;;;5.85;3.47;;;;;;;20.65;63.03;99586.11;1808499;78;20926;-62
2022/06/28 01:51:25;;;;;;;5.87;4.10;;;;;;;20.64;63.08;99589.75;1814846;78;21008;-63
2022/06/28 01:53:52;;;;;;;7.20;4.30;;;;;;;20.60;63.11;99589.67;1811383;78;26679;-62
2022/06/28 01:56:19;;;;;;;4.50;3.98;;;;;;;20.58;63.17;99587.64;1813569;78;21002;-62
2022/06/28 01:58:46;;;;;;;7.80;4.92;;;;;;;20.56;63.17;99582.98;1803438;78;21114;-62
2022/06/28 02:01:13;;;;;;;5.60;4.45;;;;;;;20.52;63.18;99589.49;1801934;78;20952;-62
2022/06/28 02:03:41;;;;;;;;;;;;;;;20.47;63.21;99585.09;1796624;78;21164;-63
2022/06/28 02:06:09;;;;;;;10.15;3.90;;;;;;;20.46;63.41;99586.08;1799415;78;20444;-62
2022/06/28 02:08:36;;;;;;;6.28;4.20;;;;;;;20.44;63.39;99588.02;1803207;78;21050;-62
2022/06/28 02:11:05;;;;;;;5.05;3.80;;;;;;;20.43;63.42;99581.89;1718103;82;20966;-62
2022/06/28 02:13:32;;;;;;;9.60;4.47;;;;;;;20.43;63.43;99580.56;1751281;80;21006;-62
2022/06/28 02:15:59;;;;;;;7.00;4.20;;;;;;;20.43;63.41;99590.34;1730471;81;21066;-62
2022/06/28 02:18:26;;;;;;;4.47;3.77;;;;;;;20.40;63.45;99589.30;1753411;81;21100;-62
2022/06/28 02:20:54;;;;;;;15.50;4.47;;;;;;;20.40;63.50;99585.31;1751867;80;21045;-62
2022/06/28 02:23:21;;;;;;;6.50;4.22;;;;;;;20.38;63.52;99589.42;1803579;79;20963;-63
2022/06/28 02:25:47;;;;;;;6.55;3.95;;;;;;;20.39;63.53;99588.92;1800916;79;21117;-62
2022/06/28 02:28:14;;;;;;;5.70;4.22;;;;;;;20.39;63.55;99591.58;1799845;79;21055;-62
2022/06/28 02:30:41;;;;;;;8.33;4.42;;;;;;;20.43;63.61;99594.31;1797641;79;21062;-63
2022/06/28 02:33:07;;;;;;;6.05;3.85;;;;;;;20.44;63.62;99595.98;1804676;79;21411;-62
2022/06/28 02:41:04;;;;;;;6.62;3.72;;;;;;;20.54;63.58;99590.23;1805391;79;21106;-62
2022/06/28 02:43:31;;;;;;;7.40;3.98;;;;;;;20.61;63.64;99587.35;1801576;78;21611;-63
2022/06/28 02:45:57;;;;;;;7.47;4.00;;;;;;;20.65;63.67;99596.73;1753834;79;21967;-63
2022/06/28 02:48:24;;;;;;;6.58;4.10;;;;;;;20.68;63.66;99595.11;1798942;79;21361;-63
2022/06/28 02:50:51;;;;;;;4.92;4.42;;;;;;;20.74;63.83;99595.88;1757516;80;21014;-62
2022/06/28 02:53:17;;;;;;;11.00;4.35;;;;;;;20.79;63.62;99595.47;1733621;81;22405;-62
2022/06/28 02:55:44;;;;;;;8.55;4.42;;;;;;;20.83;63.60;99599.50;1797518;79;21088;-62
2022/06/28 02:58:11;;;;;;;8.88;4.42;;;;;;;20.88;63.69;99599.08;1804167;79;21111;-63
2022/06/28 03:00:38;;;;;;;5.70;4.33;;;;;;;20.98;63.78;99610.53;1813215;79;21074;-63
2022/06/28 03:03:05;;;;;;;4.85;4.00;;;;;;;21.43;64.07;99601.94;1802694;79;21616;-63
2022/06/28 03:05:31;;;;;;;7.17;4.15;;;;;;;22.10;63.86;99591.47;1810299;79;20991;-63
2022/06/28 03:07:58;;;;;;;8.70;4.45;;;;;;;22.78;63.67;99592.80;1809493;79;27053;-63
2022/06/28 03:10:25;;;;;;;10.93;5.10;;;;;;;23.34;63.16;99590.22;1808623;79;27461;-63
2022/06/28 03:12:51;;;;;;;;;;;;;;;23.76;62.77;99586.80;1811786;78;20947;-63
2022/06/28 03:15:18;;;;;;;7.15;4.47;;;;;;;24.16;62.35;99583.08;1811908;78;20169;-64
2022/06/28 03:17:45;;;;;;;9.70;5.03;;;;;;;24.53;62.23;99583.99;1809524;79;28662;-63
2022/06/28 03:20:12;;;;;;;9.73;5.00;;;;;;;24.54;61.68;99578.50;1809224;78;21126;-63
2022/06/28 03:22:38;;;;;;;8.08;4.55;;;;;;;24.21;61.41;99580.26;1808145;79;21074;-63
2022/06/28 03:25:07;;;;;;;9.68;4.25;;;;;;;23.81;61.20;99581.81;1810080;79;21054;-63
2022/06/28 03:27:34;;;;;;;24.40;6.65;;;;;;;23.51;61.18;99575.66;1808411;79;21071;-63
2022/06/28 03:30:01;;;;;;;11.33;4.33;;;;;;;23.35;61.26;99586.55;1811073;79;20975;-63
2022/06/28 03:32:27;;;;;;;;;;;;;;;23.78;61.60;99575.48;1812515;78;21256;-63
2022/06/28 03:34:54;;;;;;;35.17;8.25;;;;;;;24.64;61.34;99570.31;1811210;79;21778;-62
2022/06/28 03:37:21;;;;;;;30.57;7.37;;;;;;;25.52;61.01;99569.55;1810030;79;21003;-63
2022/06/28 03:39:48;;;;;;;23.73;5.20;;;;;;;26.38;60.52;99573.11;1808510;78;21033;-64
2022/06/28 03:42:14;;;;;;;;;;;;;;;27.10;59.94;99571.88;1809756;79;21748;-63
2022/06/28 03:44:41;;;;;;;175.68;28.70;;;;;;;27.89;58.97;99573.52;1811437;79;20160;-63
2022/06/28 03:47:08;;;;;;;;;;;;;;;28.72;59.48;99583.39;1812099;79;21051;-63
2022/06/28 03:49:34;;;;;;;18.48;4.95;;;;;;;29.66;58.04;99585.23;1808591;79;20508;-64
2022/06/28 03:52:01;;;;;;;6.85;3.27;;;;;;;30.07;57.29;99577.61;1807978;79;21043;-63
2022/06/28 03:54:28;;;;;;;4.67;2.90;;;;;;;30.43;56.46;99580.52;1808166;78;21003;-63
2022/06/28 03:56:55;;;;;;;9.28;3.37;;;;;;;30.75;56.13;99574.01;1805464;78;21494;-64
2022/06/28 03:59:22;;;;;;;8.50;3.50;;;;;;;31.09;55.19;99570.80;1808513;78;21136;-64
2022/06/28 04:01:49;;;;;;;22.22;5.12;;;;;;;31.43;54.54;99567.88;1805602;78;20983;-64
2022/06/28 04:04:16;;;;;;;14.63;4.22;;;;;;;31.75;53.88;99572.01;1811285;78;21512;-63
2022/06/28 04:06:43;;;;;;;6.85;3.08;;;;;;;32.06;53.22;99565.86;1803427;78;21560;-64
2022/06/28 04:09:09;;;;;;;5.70;3.10;;;;;;;32.16;52.07;99562.70;1810693;78;21027;-64
2022/06/28 04:11:36;;;;;;;5.37;2.98;;;;;;;32.14;51.57;99563.97;1809855;78;21517;-63
2022/06/28 04:14:03;;;;;;;11.83;3.70;;;;;;;32.16;50.84;99568.63;1812009;78;20952;-64
2022/06/28 04:16:30;;;;;;;5.20;3.27;;;;;;;32.31;50.46;99560.52;1809104;78;20963;-65
2022/06/28 04:18:57;;;;;;;10.60;3.80;;;;;;;32.50;49.57;99569.56;1808894;78;21726;-64
2022/06/28 04:21:24;;;;;;;8.88;3.05;;;;;;;32.72;49.38;99567.32;1804828;78;21564;-64
2022/06/28 04:23:51;;;;;;;4.50;3.22;;;;;;;33.05;48.88;99557.27;1804261;78;22475;-64
2022/06/28 04:26:18;;;;;;;6.20;3.12;;;;;;;33.21;48.03;99556.69;1810159;78;21057;-64
2022/06/28 04:28:44;;;;;;;11.70;3.30;;;;;;;33.17;47.05;99559.03;1808355;78;21060;-64
2022/06/28 04:31:11;;;;;;;8.08;3.05;;;;;;;33.16;46.98;99558.73;1808058;78;21485;-64
2022/06/28 04:33:38;;;;;;;4.67;3.10;;;;;;;33.49;46.76;99559.41;1808390;78;21611;-64
2022/06/28 04:36:06;;;;;;;10.43;2.98;;;;;;;33.81;45.92;99565.52;1803110;78;21153;-64
2022/06/28 04:38:34;;;;;;;9.50;3.55;;;;;;;33.97;45.44;99549.97;1809243;78;21017;-64
2022/06/28 04:41:01;;;;;;;6.22;2.80;;;;;;;33.94;44.84;99550.42;1808630;78;21019;-65
2022/06/28 04:43:28;;;;;;;10.58;2.90;;;;;;;34.09;44.46;99559.55;1803925;78;21561;-64
2022/06/28 04:45:55;;;;;;;8.08;2.87;;;;;;;33.98;43.71;99546.22;1806828;78;21138;-64
2022/06/28 04:48:21;;;;;;;8.60;3.27;;;;;;;33.73;43.44;99553.64;1810080;78;21066;-64
2022/06/28 04:50:48;;;;;;;6.37;2.70;;;;;;;33.78;43.09;99556.50;1810047;78;20937;-64
2022/06/28 04:53:15;;;;;;;5.53;2.80;;;;;;;33.99;42.74;99551.92;1804688;78;21028;-65
2022/06/28 04:55:41;;;;;;;4.60;2.77;;;;;;;34.26;42.62;99550.23;1803124;78;21060;-64
2022/06/28 04:58:08;;;;;;;9.40;2.95;;;;;;;34.57;42.06;99551.03;1805816;78;20998;-64
2022/06/28 05:00:35;;;;;;;5.05;2.62;;;;;;;34.69;41.79;99545.09;1802393;78;21094;-64
2022/06/28 05:03:02;;;;;;;11.90;3.62;;;;;;;34.72;41.17;99544.08;1802751;78;21059;-64
2022/06/28 05:05:29;;;;;;;12.70;3.12;;;;;;;34.74;41.04;99541.14;1803612;78;21007;-63
2022/06/28 05:07:56;;;;;;;5.15;3.00;;;;;;;34.87;40.88;99544.14;1803726;78;21577;-64
2022/06/28 05:10:23;;;;;;;8.73;2.65;;;;;;;35.00;40.22;99547.16;1805883;78;20960;-64
2022/06/28 05:12:50;;;;;;;7.90;3.20;;;;;;;34.95;40.03;99548.70;1804550;78;21698;-64
2022/06/28 05:15:36;;;;;;;5.67;2.70;;;;;;;34.80;39.57;99548.34;1803708;78;20971;-64
2022/06/28 05:18:03;;;;;;;11.12;3.60;;;;;;;34.38;39.24;99556.50;1800532;78;20948;-63
2022/06/28 05:20:30;;;;;;;21.57;4.92;;;;;;;33.92;39.08;99549.85;1798842;78;21626;-62
2022/06/28 05:22:56;;;;;;;48.45;7.80;;;;;;;33.58;39.10;99546.75;1793769;78;21546;-62
2022/06/28 05:25:25;;;;;;;5.97;2.72;;;;;;;33.34;38.90;99554.38;1796721;78;22168;-61
2022/06/28 05:27:52;;;;;;;7.87;3.02;;;;;;;33.11;38.86;99549.11;1789301;78;20959;-64
2022/06/28 05:30:20;;;;;;;18.10;10.98;;;;;;;32.67;38.74;99556.34;1753140;80;21583;-62
2022/06/28 05:32:47;;;;;;;50.95;32.00;;;;;;;32.37;38.87;99574.20;1767681;80;21612;-64
2022/06/28 05:35:14;;;;;;;9.63;7.00;;;;;;;32.32;39.31;99591.91;1754702;80;21062;-63
2022/06/28 05:37:40;;;;;;;39.70;7.72;;;;;;;32.47;39.33;99602.44;1756585;80;21003;-63
2022/06/28 05:40:09;;;;;;;21.48;5.08;;;;;;;32.48;39.28;99587.05;1764693;80;21644;-63
2022/06/28 05:42:36;;;;;;;7.08;3.45;;;;;;;32.31;39.19;99579.42;1772699;80;21056;-64
2022/06/28 05:45:03;;;;;;;9.33;3.37;;;;;;;32.10;39.32;99577.08;1790269;78;21010;-63
2022/06/28 05:47:31;;;;;;;13.53;3.72;;;;;;;31.86;39.61;99596.98;1801871;78;21034;-63
2022/06/28 05:49:58;;;;;;;9.00;3.02;;;;;;;31.62;39.35;99597.69;1787638;78;21451;-63
2022/06/28 05:52:25;;;;;;;15.48;3.30;;;;;;;31.06;39.55;99599.05;1792861;78;21038;-63
2022/06/28 05:54:51;;;;;;;4.72;3.17;;;;;;;30.55;39.46;99601.77;1798813;78;21024;-61
2022/06/28 05:57:18;;;;;;;5.70;3.30;;;;;;;30.14;39.74;99610.45;1744813;81;20931;-63
2022/06/28 05:59:45;;;;;;;7.30;3.60;;;;;;;29.65;39.97;99611.80;1742222;81;21024;-62
2022/06/28 06:02:12;;;;;;;7.70;3.50;;;;;;;29.20;40.25;99616.67;1729273;81;21084;-63
2022/06/28 06:04:40;;;;;;;6.28;4.10;;;;;;;28.94;40.51;99613.24;1797531;78;21233;-63
2022/06/28 06:07:07;;;;;;;10.72;4.62;;;;;;;28.70;40.73;99614.47;1796787;78;21473;-63
2022/06/28 06:09:36;;;;;;;13.20;4.95;;;;;;;28.58;41.08;99611.98;1796244;78;20968;-63
2022/06/28 06:12:05;;;;;;;8.75;4.40;;;;;;;28.64;41.43;99611.22;1797851;78;20987;-64
2022/06/28 06:14:31;;;;;;;8.90;3.72;;;;;;;28.93;41.78;99618.80;1797630;78;21231;-63
2022/06/28 06:16:58;;;;;;;67.62;9.85;;;;;;;29.40;41.99;99623.52;1799580;78;20901;-63
2022/06/28 06:19:25;;;;;;;33.25;7.55;;;;;;;29.79;42.10;99621.30;1803542;78;21034;-63
2022/06/28 06:21:55;;;;;;;23.52;5.90;;;;;;;30.13;42.15;99612.84;1796488;78;20965;-63
2022/06/28 06:24:22;;;;;;;10.40;4.15;;;;;;;30.62;42.40;99615.27;1810266;78;21023;-63
2022/06/28 06:26:49;;;;;;;9.83;4.30;;;;;;;31.19;42.37;99622.45;1834973;77;21283;-63
2022/06/28 06:29:16;;;;;;;27.42;5.92;;;;;;;31.57;41.81;99627.20;1797082;78;21509;-64
2022/06/28 06:31:44;;;;;;;22.95;5.50;;;;;;;31.74;42.23;99625.70;1813310;78;21023;-63
2022/06/28 06:34:13;;;;;;;20.43;8.00;;;;;;;32.07;42.11;99634.23;1808236;78;21050;-64
2022/06/28 06:36:41;;;;;;;21.75;5.92;;;;;;;32.40;41.77;99644.02;1793557;78;21058;-64
2022/06/28 06:39:09;;;;;;;20.48;5.62;;;;;;;32.51;41.49;99648.76;1811339;78;22383;-64
2022/06/28 06:41:36;;;;;;;10.35;4.35;;;;;;;32.56;40.94;99646.23;1810382;78;20972;-64
2022/06/28 06:44:03;;;;;;;14.85;4.58;;;;;;;32.43;40.82;99651.69;1811571;78;20979;-65
2022/06/28 06:46:30;;;;;;;10.85;6.30;;;;;;;32.54;40.88;99655.08;1807871;78;20988;-64
2022/06/28 06:48:58;;;;;;;14.47;5.15;;;;;;;32.85;40.64;99657.47;1809546;78;20983;-62
2022/06/28 06:51:25;;;;;;;17.42;4.95;;;;;;;32.76;40.46;99654.20;1810428;78;21830;-63
2022/06/28 06:53:53;;;;;;;7.70;4.37;;;;;;;32.56;39.27;99640.83;1806755;78;21075;-63
2022/06/28 06:56:24;;;;;;;14.05;4.35;;;;;;;31.36;39.46;99647.98;1807772;77;21463;-63
2022/06/28 06:58:55;;;;;;;5.75;3.60;;;;;;;30.75;39.98;99650.81;1811744;78;21047;-63
2022/06/28 07:01:22;;;;;;;7.47;4.22;;;;;;;30.17;39.74;99641.04;1811957;78;21041;-64
2022/06/28 07:03:48;;;;;;;7.33;4.17;;;;;;;29.46;39.99;99625.94;1809639;78;22419;-63
2022/06/28 07:06:15;;;;;;;10.20;4.60;;;;;;;29.29;40.73;99633.48;1806081;78;20974;-63
2022/06/28 07:08:42;;;;;;;15.18;5.17;;;;;;;29.30;40.75;99634.34;1810832;78;21190;-63
2022/06/28 07:11:09;;;;;;;14.43;5.50;;;;;;;28.94;40.66;99629.89;1812746;78;21026;-63
2022/06/28 07:13:36;;;;;;;12.50;4.83;;;;;;;28.60;41.02;99634.13;1816570;78;21845;-63
2022/06/28 07:16:04;;;;;;;9.90;4.90;;;;;;;28.44;41.39;99635.70;1809480;78;21921;-63
2022/06/28 07:18:31;;;;;;;10.23;4.62;;;;;;;28.44;41.58;99631.68;1809942;77;21533;-62
2022/06/28 07:20:58;;;;;;;15.98;4.95;;;;;;;28.08;41.62;99627.94;1813045;78;20967;-62
2022/06/28 07:23:46;;;;;;;12.73;4.50;;;;;;;27.33;42.60;99618.22;1732202;82;21574;-62
2022/06/28 07:26:13;;;;;;;;;;;;;;;26.81;43.26;99620.87;1723478;82;21098;-62
2022/06/28 07:28:40;;;;;;;14.53;5.30;;;;;;;26.76;43.73;99642.84;1724038;82;21068;-62
2022/06/28 07:31:07;;;;;;;7.15;4.25;;;;;;;26.71;43.82;99662.11;1729217;81;21088;-62
2022/06/28 07:33:34;;;;;;;10.98;4.87;;;;;;;26.71;44.17;99664.78;1726779;82;21140;-62
2022/06/28 07:36:00;;;;;;;;;;;;;;;26.59;44.63;99669.41;1729669;82;21081;-63
2022/06/28 07:38:29;;;;;;;7.30;4.90;;;;;;;26.63;45.53;99669.37;1724793;82;20155;-62
2022/06/28 07:40:57;;;;;;;9.38;4.45;;;;;;;26.51;45.44;99673.79;1726772;82;21122;-62
2022/06/28 07:43:29;;;;;;;7.55;4.28;;;;;;;26.71;45.74;99690.73;1722010;82;22082;-63
2022/06/28 07:45:53;;;;;;;12.78;3.98;;;;;;;26.68;45.82;99700.47;1730454;82;22272;-63
2022/06/28 07:48:21;;;;;;;6.97;4.28;;;;;;;26.45;46.17;99700.41;1729856;82;21057;-63
2022/06/28 07:53:33;;;;;;;6.35;4.58;;;;;;;26.03;46.82;99705.11;1673451;84;21061;-63
2022/06/28 07:56:01;;;;;;;8.00;4.62;;;;;;;25.73;47.10;99709.84;1729055;81;21006;-62
2022/06/28 07:58:29;;;;;;;9.10;4.40;;;;;;;25.44;47.66;99711.23;1712283;82;21748;-62
2022/06/28 08:00:55;;;;;;;9.75;4.70;;;;;;;25.17;48.66;99715.91;1727265;82;21574;-62
2022/06/28 08:03:22;;;;;;;9.80;4.58;;;;;;;24.99;49.11;99715.21;1734447;82;21021;-62
2022/06/28 08:05:49;;;;;;;;;;;;;;;24.79;51.78;99718.19;1731748;82;21443;-61
2022/06/28 08:08:15;;;;;;;;;;;;;;;24.56;51.61;99714.45;1726087;82;21251;-62
2022/06/28 08:10:43;;;;;;;14.73;5.08;;;;;;;24.33;51.70;99721.68;1730846;82;20141;-63
2022/06/28 08:13:12;;;;;;;11.65;5.40;;;;;;;24.30;51.87;99720.67;1688053;83;21016;-62
2022/06/28 08:15:39;;;;;;;17.37;4.72;;;;;;;24.24;52.56;99729.33;1728121;81;21553;-61
2022/06/28 08:18:07;;;;;;;9.35;4.80;;;;;;;24.33;52.35;99741.69;1730571;82;21040;-61
2022/06/28 08:20:34;;;;;;;15.38;5.78;;;;;;;24.45;52.83;99754.78;1727238;81;20922;-61
2022/06/28 08:23:02;;;;;;;6.15;4.78;;;;;;;24.47;53.22;99757.63;1728159;81;21044;-61
2022/06/28 08:25:29;;;;;;;10.05;5.12;;;;;;;24.60;54.04;99757.19;1693376;83;21608;-62
2022/06/28 08:27:55;;;;;;;10.58;5.33;;;;;;;24.72;54.36;99751.87;1695147;83;21587;-61
2022/06/28 08:30:22;;;;;;;10.98;5.20;;;;;;;25.01;54.37;99750.58;1694572;83;21235;-62
2022/06/28 08:32:49;;;;;;;8.63;5.15;;;;;;;25.40;55.00;99756.18;1693611;83;21114;-63
2022/06/28 08:35:16;;;;;;;;;;;;;;;25.44;56.28;99767.36;1696009;83;21037;-62
2022/06/28 08:37:43;;;;;;;18.50;6.25;;;;;;;25.50;56.16;99766.69;1690028;83;20165;-63
2022/06/28 08:40:10;;;;;;;;;;;;;;;25.86;55.64;99773.03;1701552;83;21655;-62
2022/06/28 08:42:42;;;;;;;12.85;5.37;;;;;;;26.21;55.66;99766.41;1689483;84;21031;-63
2022/06/28 08:45:12;;;;;;;11.40;5.35;;;;;;;26.46;55.39;99765.81;1690596;83;21081;-63
2022/06/28 08:47:42;;;;;;;9.13;5.47;;;;;;;26.63;55.24;99751.04;1683681;83;20994;-63
2022/06/28 08:50:33;;;;;;;7.20;5.00;;;;;;;26.78;55.32;99750.64;1694615;83;21071;-62
2022/06/28 08:53:05;;;;;;;10.63;5.33;;;;;;;26.94;55.08;99755.89;1691402;83;20965;-63
2022/06/28 08:55:34;;;;;;;9.58;5.00;;;;;;;26.79;55.28;99744.26;1681077;84;21930;-63
2022/06/28 08:58:04;;;;;;;9.65;5.70;;;;;;;26.79;55.38;99741.58;1725880;81;20974;-62
2022/06/28 09:00:32;;;;;;;8.23;5.10;;;;;;;26.89;55.39;99750.23;1716899;81;21073;-62
2022/06/28 09:02:59;;;;;;;10.20;5.80;;;;;;;26.55;55.29;99751.43;1724176;81;21001;-63
2022/06/28 09:05:28;;;;;;;7.70;5.58;;;;;;;26.43;55.73;99747.93;1723484;82;20993;-63
2022/06/28 09:07:57;;;;;;;11.15;5.42;;;;;;;26.59;56.20;99740.37;1730254;82;21101;-63
2022/06/28 09:10:25;;;;;;;13.55;6.08;;;;;;;26.63;55.97;99740.33;1728106;81;21522;-63
2022/06/28 09:13:14;;;;;;;14.93;5.80;;;;;;;26.75;56.11;99738.94;1728593;82;21546;-63
2022/06/28 09:15:54;;;;;;;9.73;5.22;;;;;;;26.90;55.96;99733.13;1694782;83;21074;-65
2022/06/28 09:18:38;;;;;;;7.62;5.03;;;;;;;27.40;56.43;99723.73;1719204;82;21140;-66
2022/06/28 09:21:08;;;;;;;7.30;5.15;;;;;;;27.62;55.44;99723.88;1730951;82;21100;-62
2022/06/28 09:23:38;;;;;;;7.00;5.20;;;;;;;27.80;55.88;99727.05;1731709;82;21598;-63
2022/06/28 09:26:12;;;;;;;7.60;5.75;;;;;;;28.00;55.63;99723.82;1728981;81;21099;-64
2022/06/28 09:28:46;;;;;;;16.93;6.30;;;;;;;28.18;55.61;99713.55;1720358;82;21096;-62
2022/06/28 09:31:26;;;;;;;18.37;5.62;;;;;;;28.56;55.91;99714.75;1729778;81;21515;-63
2022/06/28 09:34:06;;;;;;;11.00;5.40;;;;;;;28.63;55.17;99725.07;1721393;82;21054;-62
2022/06/28 09:36:36;;;;;;;9.10;4.92;;;;;;;28.31;54.14;99751.28;1727438;82;21088;-63
2022/06/28 09:39:16;;;;;;;12.23;5.17;;;;;;;27.94;54.96;99762.14;1734053;81;20993;-62
2022/06/28 09:41:49;;;;;;;20.23;6.20;;;;;;;27.64;54.96;99768.27;1719069;81;21111;-64
2022/06/28 09:44:17;;;;;;;8.83;5.05;;;;;;;27.40;55.21;99777.35;1728816;81;20997;-62
2022/06/28 09:47:49;;;;;;;5.87;5.23;;;;;;;27.09;54.96;99792.64;1863951;75;22752;-64
2022/06/28 09:50:23;;;;;;;49.05;9.28;;;;;;;26.79;55.44;99800.50;1838563;76;20991;-63
2022/06/28 09:52:51;;;;;;;17.32;6.05;;;;;;;26.72;55.58;99814.25;1767832;79;21811;-63
2022/06/28 09:55:19;;;;;;;23.85;6.55;;;;;;;26.45;55.41;99833.76;1781635;78;20994;-63
2022/06/28 09:57:48;;;;;;;7.72;4.75;;;;;;;26.06;55.43;99841.20;1772953;80;21013;-62
2022/06/28 10:00:20;;;;;;;9.30;5.33;;;;;;;25.73;55.75;99852.91;1812769;77;21116;-62
2022/06/28 10:02:46;;;;;;;35.63;7.60;;;;;;;25.48;55.92;99852.06;1769509;78;21013;-62
2022/06/28 10:05:14;;;;;;;;;;;;;;;25.22;56.13;99852.52;1777306;78;21855;-61
2022/06/28 10:07:41;;;;;;;8.13;4.83;;;;;;;25.05;56.66;99861.97;1773559;80;20142;-61
2022/06/28 10:10:10;;;;;;;8.28;4.28;;;;;;;24.93;56.79;99860.93;1811971;78;20954;-61
2022/06/28 10:15:40;;;;;;;6.50;4.42;;;;;;;24.91;57.13;99859.42;1749577;80;21024;-62
2022/06/28 10:18:15;;;;;;;13.53;5.47;;;;;;;24.92;57.46;99849.06;1782000;80;21174;-63
2022/06/28 10:20:46;;;;;;;7.28;5.42;;;;;;;24.83;57.34;99835.35;1747668;80;21020;-62
2022/06/28 10:23:44;;;;;;;7.40;5.22;;;;;;;24.76;57.63;99829.33;1783498;79;21011;-62
2022/06/28 10:26:13;;;;;;;8.45;5.30;;;;;;;24.83;57.99;99824.67;1780849;79;21002;-62
2022/06/28 10:28:49;;;;;;;10.58;5.40;;;;;;;24.74;58.04;99821.97;1776657;79;21018;-62
2022/06/28 10:31:29;;;;;;;9.25;6.17;;;;;;;24.57;58.31;99812.23;1786482;79;21009;-62
2022/06/28 10:34:01;;;;;;;5.95;5.30;;;;;;;24.25;58.42;99813.69;1784320;79;21041;-62
2022/06/28 10:36:33;;;;;;;7.83;5.60;;;;;;;24.22;59.08;99822.02;1778955;79;20949;-60
2022/06/28 10:42:02;;;;;;;7.17;4.72;;;;;;;23.83;59.37;99828.26;1856613;76;22722;-62
2022/06/28 10:44:37;;;;;;;6.67;5.37;;;;;;;23.51;59.96;99810.16;1820676;77;21582;-62
2022/06/28 10:47:10;;;;;;;8.45;6.20;;;;;;;23.16;61.28;99799.83;1823344;78;21223;-62
2022/06/28 10:49:58;;;;;;;9.93;5.80;;;;;;;22.81;61.93;99789.47;1815290;77;21582;-62
2022/06/28 10:52:35;;;;;;;14.10;5.97;;;;;;;22.59;62.95;99797.86;1812903;77;21055;-62
2022/06/28 10:55:08;;;;;;;8.28;6.25;;;;;;;22.29;63.11;99795.80;1810445;77;21001;-63
2022/06/28 10:57:40;;;;;;;9.20;6.28;;;;;;;22.15;63.55;99806.88;1806627;77;22215;-62
2022/06/28 11:00:23;;;;;;;8.35;6.28;;;;;;;22.17;63.95;99815.56;1812405;77;21224;-62
2022/06/28 11:02:56;;;;;;;7.80;7.00;;;;;;;22.09;65.11;99823.75;1814349;78;21047;-62
2022/06/28 11:05:28;;;;;;;10.13;7.45;;;;;;;21.99;64.81;99826.12;1806856;77;21069;-62
2022/06/28 11:08:02;;;;;;;10.38;7.42;;;;;;;22.15;64.74;99825.50;1788406;77;21045;-61
2022/06/28 11:10:30;;;;;;;7.53;6.72;;;;;;;22.33;65.44;99833.11;1811186;78;20900;-61
2022/06/28 11:13:20;;;;;;;9.13;6.40;;;;;;;22.18;67.11;99831.42;1819985;77;21069;-63
2022/06/28 11:15:48;;;;;;;10.53;6.75;;;;;;;22.09;66.23;99837.05;1736530;80;22651;-62
2022/06/28 11:18:20;;;;;;;9.28;6.67;;;;;;;22.10;66.42;99850.72;1707931;82;21131;-61
2022/06/28 11:20:47;;;;;;;13.25;7.10;;;;;;;22.02;66.12;99855.91;1707018;83;21137;-62
2022/06/28 11:23:30;;;;;;;7.55;6.20;;;;;;;21.83;66.73;99851.95;1737357;82;21067;-62
2022/06/28 11:29:03;;;;;;;13.03;6.87;;;;;;;21.75;67.28;99853.14;1615186;86;21168;-61
2022/06/28 11:31:35;;;;;;;12.70;6.33;;;;;;;21.78;67.48;99860.83;1636815;85;21114;-63
2022/06/28 11:34:02;;;;;;;11.75;6.15;;;;;;;21.82;67.63;99856.92;1634528;85;21141;-61
2022/06/28 11:36:31;;;;;;;8.55;5.58;;;;;;;21.79;67.75;99863.36;1638636;84;21114;-61
2022/06/28 11:39:05;;;;;;;10.60;6.70;;;;;;;21.89;67.89;99870.81;1638918;85;22060;-62
2022/06/28 11:41:32;;;;;;;12.60;5.65;;;;;;;22.26;67.98;99881.20;1639349;85;21092;-61
2022/06/28 11:44:02;;;;;;;6.25;4.90;;;;;;;22.54;67.77;99896.23;1638536;85;21178;-62
2022/06/28 11:46:29;;;;;;;7.65;4.25;;;;;;;22.58;68.10;99907.45;1637647;85;21134;-61
2022/06/28 11:48:57;;;;;;;10.65;4.40;;;;;;;22.50;67.98;99917.48;1638034;85;21069;-61
2022/06/28 11:51:33;;;;;;;6.20;4.58;;;;;;;22.30;68.40;99920.69;1606510;82;21454;-61
2022/06/28 11:54:08;;;;;;;8.45;5.03;;;;;;;22.05;67.75;99927.41;1701450;82;24679;-62
2022/06/28 11:56:44;;;;;;;7.47;4.12;;;;;;;21.95;67.85;99929.22;1730392;81;21046;-62
2022/06/28 11:59:11;;;;;;;6.50;4.10;;;;;;;21.82;68.16;99928.69;1730256;81;21048;-62
2022/06/28 12:01:41;;;;;;;8.13;3.80;;;;;;;21.74;68.27;99933.85;1703735;82;22737;-61
2022/06/28 12:04:09;;;;;;;7.22;3.45;;;;;;;21.66;68.52;99935.38;1698660;83;21081;-62